createdAt,value
2022-09-24T00:01:37.447Z,27.50
2022-09-24T00:04:09.567Z,27.54
2022-09-24T00:06:45.511Z,27.61
2022-09-24T00:09:17.549Z,27.62
2022-09-24T00:11:46.983Z,27.54
2022-09-24T00:14:17.049Z,27.46
2022-09-24T00:16:47.042Z,27.46
2022-09-24T00:19:16.510Z,27.49
2022-09-24T00:21:46.140Z,27.40
2022-09-24T00:24:37.438Z,27.56
2022-09-24T00:27:07.943Z,27.52
2022-09-24T00:29:38.190Z,27.59
2022-09-24T00:32:07.975Z,27.59
2022-09-24T00:34:36.885Z,27.50
2022-09-24T00:37:06.149Z,27.50
2022-09-24T00:39:35.400Z,27.56
2022-09-24T00:42:04.571Z,27.63
2022-09-24T00:44:42.216Z,27.75
2022-09-24T00:47:29.948Z,27.75
2022-09-24T00:50:09.756Z,27.70
2022-09-24T00:52:45.923Z,27.66
2022-09-24T00:55:16.727Z,27.74
2022-09-24T00:57:47.632Z,27.65
2022-09-24T01:00:20.708Z,27.64
2022-09-24T01:02:58.237Z,27.72
2022-09-24T01:05:30.476Z,27.64
2022-09-24T01:08:03.610Z,27.84
2022-09-24T01:10:53.284Z,27.88
2022-09-24T01:13:33.976Z,27.76
2022-09-24T01:16:29.423Z,27.48
2022-09-24T01:19:44.941Z,27.48
2022-09-24T01:22:34.959Z,27.42
2022-09-24T01:25:36.727Z,27.34
2022-09-24T01:28:50.000Z,27.51
2022-09-24T01:31:31.333Z,27.41
2022-09-24T01:34:09.552Z,27.47
2022-09-24T01:36:41.765Z,27.37
2022-09-24T01:39:12.882Z,27.22
2022-09-24T01:41:44.591Z,27.13
2022-09-24T01:44:15.262Z,27.19
2022-09-24T01:46:45.691Z,27.20
2022-09-24T01:49:16.084Z,27.27
2022-09-24T01:51:52.382Z,27.23
2022-09-24T01:54:34.884Z,27.36
2022-09-24T01:57:16.525Z,27.26
2022-09-24T01:59:54.145Z,27.23
2022-09-24T02:02:57.197Z,27.34
2022-09-24T02:05:46.853Z,27.34
2022-09-24T02:08:34.928Z,27.39
2022-09-24T02:11:16.049Z,27.17
2022-09-24T02:13:53.404Z,27.23
2022-09-24T02:16:30.888Z,27.19
2022-09-24T02:19:08.426Z,27.18
2022-09-24T02:21:40.435Z,26.81
2022-09-24T02:24:20.958Z,26.82
2022-09-24T02:26:52.261Z,26.66
2022-09-24T02:29:23.687Z,26.52
2022-09-24T02:31:58.132Z,26.74
2022-09-24T02:35:04.418Z,26.78
2022-09-24T02:37:41.040Z,26.71
2022-09-24T02:40:15.812Z,26.44
2022-09-24T02:42:46.351Z,26.68
2022-09-24T02:45:16.829Z,26.73
2022-09-24T02:47:47.754Z,26.58
2022-09-24T02:50:18.488Z,26.66
2022-09-24T02:52:49.336Z,26.61
2022-09-24T02:55:19.839Z,26.60
2022-09-24T02:57:50.760Z,26.67
2022-09-24T03:00:22.912Z,26.70
2022-09-24T03:02:53.984Z,26.83
2022-09-24T03:05:25.052Z,26.70
2022-09-24T03:07:55.373Z,26.75
2022-09-24T03:10:26.858Z,26.82
2022-09-24T03:12:58.222Z,26.80
2022-09-24T03:15:28.918Z,26.68
2022-09-24T03:17:59.940Z,26.88
2022-09-24T03:20:31.199Z,27.01
2022-09-24T03:23:01.463Z,27.04
2022-09-24T03:25:31.482Z,26.87
2022-09-24T03:28:01.971Z,27.05
2022-09-24T03:30:50.775Z,27.02
2022-09-24T03:33:21.238Z,27.14
2022-09-24T03:35:52.445Z,27.16
2022-09-24T03:38:23.989Z,27.29
2022-09-24T03:40:55.281Z,27.39
2022-09-24T03:43:26.802Z,27.44
2022-09-24T03:45:58.146Z,27.58
2022-09-24T03:48:29.474Z,27.71
2022-09-24T03:51:04.938Z,27.67
2022-09-24T03:53:35.997Z,27.88
2022-09-24T03:56:08.244Z,28.14
2022-09-24T03:58:40.326Z,27.99
2022-09-24T04:01:14.511Z,28.12
2022-09-24T04:03:45.027Z,28.06
2022-09-24T04:06:14.799Z,28.27
2022-09-24T04:08:44.642Z,28.10
2022-09-24T04:11:14.351Z,28.28
2022-09-24T04:13:44.157Z,28.29
2022-09-24T04:16:14.394Z,28.31
2022-09-24T04:18:44.798Z,28.52
2022-09-24T04:21:15.255Z,28.41
2022-09-24T04:23:45.521Z,28.41
2022-09-24T04:26:16.665Z,28.43
2022-09-24T04:28:46.887Z,28.52
2022-09-24T04:31:21.388Z,28.64
2022-09-24T04:33:52.499Z,28.68
2022-09-24T04:36:23.121Z,28.69
2022-09-24T04:38:53.185Z,28.68
2022-09-24T04:41:23.336Z,28.73
2022-09-24T04:43:53.629Z,28.49
2022-09-24T04:46:24.016Z,28.77
2022-09-24T04:48:57.430Z,28.85
2022-09-24T04:51:27.997Z,28.69
2022-09-24T04:53:59.431Z,28.75
2022-09-24T04:56:29.363Z,28.87
2022-09-24T04:59:00.508Z,28.99
2022-09-24T05:01:31.826Z,28.98
2022-09-24T05:04:02.661Z,29.22
2022-09-24T05:06:33.265Z,29.04
2022-09-24T05:09:02.997Z,29.03
2022-09-24T05:11:33.387Z,29.01
2022-09-24T05:14:03.879Z,28.93
2022-09-24T05:16:34.369Z,29.12
2022-09-24T05:19:06.296Z,29.14
2022-09-24T05:21:36.412Z,29.30
2022-09-24T05:24:07.544Z,29.36
2022-09-24T05:26:56.062Z,29.37
2022-09-24T05:29:26.389Z,29.30
2022-09-24T05:31:58.426Z,29.12
2022-09-24T05:34:29.876Z,29.49
2022-09-24T05:37:00.539Z,29.78
2022-09-24T05:39:33.894Z,29.80
2022-09-24T05:42:05.901Z,29.88
2022-09-24T05:44:35.644Z,29.61
2022-09-24T05:47:06.232Z,29.83
2022-09-24T05:49:36.603Z,30.05
2022-09-24T05:52:07.284Z,30.11
2022-09-24T05:54:37.139Z,30.18
2022-09-24T05:57:07.925Z,30.03
2022-09-24T05:59:38.535Z,29.94
2022-09-24T06:02:08.550Z,29.92
2022-09-24T06:04:38.919Z,29.83
2022-09-24T06:07:09.337Z,30.08
2022-09-24T06:09:39.587Z,29.92
2022-09-24T06:12:12.150Z,29.91
2022-09-24T06:14:44.164Z,29.99
2022-09-24T06:17:16.814Z,30.32
2022-09-24T06:19:48.913Z,29.96
2022-09-24T06:22:19.164Z,30.07
2022-09-24T06:24:49.195Z,30.16
2022-09-24T06:27:19.707Z,30.42
2022-09-24T06:29:49.729Z,30.47
2022-09-24T06:32:21.359Z,30.59
2022-09-24T06:34:54.430Z,30.16
2022-09-24T06:37:28.837Z,30.39
2022-09-24T06:39:59.696Z,30.28
2022-09-24T06:42:34.344Z,30.45
2022-09-24T06:45:06.368Z,30.42
2022-09-24T06:47:36.324Z,30.01
2022-09-24T06:50:07.463Z,29.99
2022-09-24T06:52:37.605Z,30.22
2022-09-24T06:55:08.306Z,30.30
2022-09-24T06:57:38.480Z,30.14
2022-09-24T07:00:08.513Z,30.06
2022-09-24T07:02:37.645Z,30.08
2022-09-24T07:05:08.216Z,29.85
2022-09-24T07:07:38.767Z,30.01
2022-09-24T07:10:09.194Z,29.95
2022-09-24T07:12:38.846Z,29.87
2022-09-24T07:15:08.958Z,29.73
2022-09-24T07:17:38.693Z,29.78
2022-09-24T07:20:08.451Z,29.76
2022-09-24T07:22:42.274Z,29.99
2022-09-24T07:25:13.714Z,29.90
2022-09-24T07:27:42.920Z,29.81
2022-09-24T07:30:12.617Z,29.84
2022-09-24T07:32:41.506Z,29.70
2022-09-24T07:35:11.039Z,29.58
2022-09-24T07:37:40.100Z,29.73
2022-09-24T07:40:10.530Z,29.90
2022-09-24T07:42:47.327Z,29.76
2022-09-24T07:45:18.942Z,29.92
2022-09-24T07:47:48.406Z,29.98
2022-09-24T07:50:18.828Z,29.87
2022-09-24T07:52:52.665Z,29.94
2022-09-24T07:55:22.505Z,29.85
2022-09-24T07:57:53.549Z,29.85
2022-09-24T08:00:24.401Z,29.95
2022-09-24T08:02:55.024Z,29.73
2022-09-24T08:05:24.335Z,29.62
2022-09-24T08:07:54.982Z,29.60
2022-09-24T08:10:25.354Z,29.72
2022-09-24T08:12:54.926Z,29.67
2022-09-24T08:15:24.355Z,29.76
2022-09-24T08:17:54.659Z,29.67
2022-09-24T08:20:25.631Z,29.53
2022-09-24T08:22:55.382Z,29.45
2022-09-24T08:25:24.438Z,29.69
2022-09-24T08:27:53.662Z,29.69
2022-09-24T08:30:22.708Z,29.76
2022-09-24T08:32:51.904Z,29.55
2022-09-24T08:35:20.878Z,29.68
2022-09-24T08:37:49.737Z,29.58
2022-09-24T08:40:25.601Z,29.59
2022-09-24T08:43:19.498Z,29.74
2022-09-24T08:46:15.864Z,29.66
2022-09-24T08:48:50.396Z,29.59
2022-09-24T08:51:23.549Z,29.54
2022-09-24T08:54:07.472Z,29.49
2022-09-24T08:56:40.135Z,29.56
2022-09-24T08:59:25.890Z,29.47
2022-09-24T09:02:04.609Z,29.57
2022-09-24T09:04:39.340Z,29.27
2022-09-24T09:07:24.765Z,29.53
2022-09-24T09:10:15.352Z,29.43
2022-09-24T09:13:03.870Z,29.37
2022-09-24T09:15:37.943Z,29.33
2022-09-24T09:18:27.669Z,29.34
2022-09-24T09:21:13.230Z,29.44
2022-09-24T09:23:55.459Z,29.52
2022-09-24T09:26:26.688Z,29.30
2022-09-24T09:29:02.005Z,29.42
2022-09-24T09:31:59.121Z,29.39
2022-09-24T09:34:47.035Z,29.44
2022-09-24T09:37:23.342Z,29.38
2022-09-24T09:40:30.628Z,29.49
2022-09-24T09:43:10.791Z,29.50
2022-09-24T09:45:58.506Z,29.38
2022-09-24T09:48:32.870Z,29.44
2022-09-24T09:51:06.465Z,29.51
2022-09-24T09:53:35.596Z,29.38
2022-09-24T09:56:08.730Z,29.54
2022-09-24T09:58:57.347Z,29.58
2022-09-24T10:01:34.315Z,29.69
2022-09-24T10:04:05.876Z,29.55
2022-09-24T10:06:38.286Z,29.55
2022-09-24T10:09:22.452Z,29.52
2022-09-24T10:11:52.064Z,29.59
2022-09-24T10:14:22.578Z,29.50
2022-09-24T10:16:57.428Z,29.59
2022-09-24T10:19:35.548Z,29.49
2022-09-24T10:22:26.334Z,29.54
2022-09-24T10:24:58.928Z,29.33
2022-09-24T10:27:38.920Z,29.25
2022-09-24T10:30:34.954Z,29.28
2022-09-24T10:33:06.930Z,29.23
2022-09-24T10:35:39.620Z,29.25
2022-09-24T10:38:25.020Z,29.33
2022-09-24T10:40:55.376Z,29.18
2022-09-24T10:43:24.883Z,29.13
2022-09-24T10:46:28.790Z,29.22
2022-09-24T10:49:20.999Z,29.21
2022-09-24T10:52:32.742Z,29.06
2022-09-24T10:55:27.958Z,29.08
2022-09-24T10:58:15.252Z,29.04
2022-09-24T11:01:13.130Z,29.11
2022-09-24T11:03:47.779Z,29.04
2022-09-24T11:06:35.657Z,28.93
2022-09-24T11:09:22.562Z,28.86
2022-09-24T11:12:23.764Z,29.10
2022-09-24T11:15:23.940Z,29.06
2022-09-24T11:18:11.160Z,28.97
2022-09-24T11:20:44.166Z,28.77
2022-09-24T11:23:42.795Z,28.72
2022-09-24T11:26:53.804Z,28.69
2022-09-24T11:29:34.716Z,28.59
2022-09-24T11:32:38.690Z,28.63
2022-09-24T11:35:39.872Z,28.53
2022-09-24T11:38:23.656Z,28.61
2022-09-24T11:41:18.126Z,28.62
2022-09-24T11:44:11.171Z,28.55
2022-09-24T11:47:03.412Z,28.73
2022-09-24T11:49:38.539Z,28.58
2022-09-24T11:52:39.510Z,28.48
2022-09-24T11:55:26.874Z,28.57
2022-09-24T11:58:10.591Z,28.58
2022-09-24T12:00:45.973Z,28.57
2022-09-24T12:03:44.070Z,28.58
2022-09-24T12:06:20.310Z,28.64
2022-09-24T12:09:02.786Z,28.61
2022-09-24T12:11:48.121Z,28.66
2022-09-24T12:14:28.141Z,28.63
2022-09-24T12:17:08.531Z,28.47
2022-09-24T12:20:15.620Z,28.60
2022-09-24T12:22:45.731Z,28.43
2022-09-24T12:25:17.188Z,28.49
2022-09-24T12:27:48.481Z,28.44
2022-09-24T12:30:46.298Z,28.57
2022-09-24T12:33:19.515Z,28.48
2022-09-24T12:36:05.524Z,28.56
2022-09-24T12:38:43.413Z,28.51
2022-09-24T12:41:41.252Z,28.44
2022-09-24T12:44:14.491Z,28.44
2022-09-24T12:46:49.433Z,28.46
2022-09-24T12:50:16.160Z,28.59
2022-09-24T12:52:45.305Z,28.46
2022-09-24T12:55:27.695Z,28.51
2022-09-24T12:57:57.934Z,28.65
2022-09-24T13:00:43.905Z,28.50
2022-09-24T13:03:36.439Z,28.53
2022-09-24T13:06:20.723Z,28.35
2022-09-24T13:08:51.415Z,28.36
2022-09-24T13:11:34.675Z,28.34
2022-09-24T13:14:16.641Z,28.35
2022-09-24T13:16:50.683Z,28.28
2022-09-24T13:19:36.558Z,28.08
2022-09-24T13:22:06.633Z,28.05
2022-09-24T13:24:52.034Z,28.18
2022-09-24T13:27:42.750Z,28.04
2022-09-24T13:30:53.434Z,28.16
2022-09-24T13:33:34.592Z,28.18
2022-09-24T13:36:32.553Z,28.17
2022-09-24T13:39:17.404Z,28.06
2022-09-24T13:42:02.109Z,28.02
2022-09-24T13:44:50.449Z,28.01
2022-09-24T13:47:38.167Z,27.91
2022-09-24T13:50:28.726Z,28.08
2022-09-24T13:52:57.868Z,27.92
2022-09-24T13:55:32.725Z,27.91
2022-09-24T13:58:02.818Z,27.77
2022-09-24T14:00:33.553Z,27.95
2022-09-24T14:03:05.969Z,27.86
2022-09-24T14:05:38.478Z,27.93
2022-09-24T14:08:14.142Z,27.83
2022-09-24T14:10:44.322Z,27.68
2022-09-24T14:13:24.690Z,27.75
2022-09-24T14:15:55.182Z,27.65
2022-09-24T14:18:26.379Z,27.74
2022-09-24T14:21:15.523Z,27.82
2022-09-24T14:23:53.115Z,27.75
2022-09-24T14:26:43.214Z,27.73
2022-09-24T14:32:58.863Z,27.59
2022-09-24T14:35:40.544Z,27.62
2022-09-24T14:38:14.363Z,27.59
2022-09-24T14:40:52.165Z,27.60
2022-09-24T14:44:01.793Z,27.69
2022-09-24T14:46:38.361Z,27.59
2022-09-24T14:49:28.786Z,27.48
2022-09-24T14:52:05.748Z,27.56
2022-09-24T14:54:41.360Z,27.55
2022-09-24T14:57:27.457Z,27.67
2022-09-24T14:59:56.537Z,27.52
2022-09-24T15:02:35.593Z,27.65
2022-09-24T15:05:09.816Z,27.54
2022-09-24T15:07:39.242Z,27.45
2022-09-24T15:10:08.395Z,27.46
2022-09-24T15:12:39.311Z,27.45
2022-09-24T15:15:29.040Z,27.48
2022-09-24T15:17:58.636Z,27.36
2022-09-24T15:20:27.701Z,27.38
2022-09-24T15:22:57.112Z,27.38
2022-09-24T15:25:26.698Z,27.48
2022-09-24T15:27:55.906Z,27.44
2022-09-24T15:30:25.491Z,27.37
2022-09-24T15:32:54.642Z,27.39
2022-09-24T15:35:23.996Z,27.47
2022-09-24T15:37:53.329Z,27.44
2022-09-24T15:40:26.843Z,27.53
2022-09-24T15:42:56.488Z,27.46
2022-09-24T15:45:27.440Z,27.55
2022-09-24T15:47:56.746Z,27.48
2022-09-24T15:50:30.806Z,27.50
2022-09-24T15:53:02.720Z,27.49
2022-09-24T15:55:32.523Z,27.49
2022-09-24T15:58:03.196Z,27.53
2022-09-24T16:00:32.562Z,27.50
2022-09-24T16:03:03.967Z,27.55
2022-09-24T16:05:33.525Z,27.48
2022-09-24T16:08:02.841Z,27.50
2022-09-24T16:10:34.063Z,27.56
2022-09-24T16:13:05.717Z,27.46
2022-09-24T16:15:38.563Z,27.49
2022-09-24T16:18:10.625Z,27.45
2022-09-24T16:20:41.527Z,27.42
2022-09-24T16:23:18.480Z,27.55
2022-09-24T16:26:06.376Z,27.49
2022-09-24T16:28:36.948Z,27.43
2022-09-24T16:31:12.069Z,27.60
2022-09-24T16:33:42.104Z,27.46
2022-09-24T16:36:13.810Z,27.49
2022-09-24T16:38:45.024Z,27.33
2022-09-24T16:41:14.419Z,27.33
2022-09-24T16:43:43.933Z,27.44
2022-09-24T16:46:19.537Z,27.31
2022-09-24T16:48:53.254Z,27.35
2022-09-24T16:51:23.071Z,27.40
2022-09-24T16:53:57.206Z,27.39
2022-09-24T16:56:27.091Z,27.34
2022-09-24T16:58:57.815Z,27.30
2022-09-24T17:01:27.805Z,27.13
2022-09-24T17:03:59.593Z,27.40
2022-09-24T17:06:32.028Z,27.45
2022-09-24T17:09:19.779Z,27.69
2022-09-24T17:11:50.597Z,27.40
2022-09-24T17:14:20.092Z,27.36
2022-09-24T17:16:51.248Z,27.45
2022-09-24T17:19:21.150Z,27.37
2022-09-24T17:21:54.820Z,27.49
2022-09-24T17:24:24.388Z,27.30
2022-09-24T17:26:55.401Z,27.54
2022-09-24T17:29:31.153Z,27.53
2022-09-24T17:32:01.342Z,27.55
2022-09-24T17:34:31.198Z,27.19
2022-09-24T17:37:01.166Z,27.45
2022-09-24T17:39:32.148Z,27.30
2022-09-24T17:42:03.623Z,27.32
2022-09-24T17:44:33.200Z,27.11
2022-09-24T17:47:03.972Z,27.20
2022-09-24T17:49:36.224Z,27.46
2022-09-24T17:52:06.005Z,27.34
2022-09-24T17:54:35.439Z,27.42
2022-09-24T17:57:05.022Z,27.48
2022-09-24T17:59:34.604Z,27.43
2022-09-24T18:02:07.811Z,27.48
2022-09-24T18:04:39.374Z,27.46
2022-09-24T18:07:08.373Z,27.31
2022-09-24T18:09:37.407Z,27.43
2022-09-24T18:12:06.867Z,27.54
2022-09-24T18:14:36.273Z,27.44
2022-09-24T18:17:07.481Z,27.42
2022-09-24T18:19:37.496Z,27.50
2022-09-24T18:22:11.333Z,27.43
2022-09-24T18:24:41.445Z,27.40
2022-09-24T18:27:10.507Z,27.33
2022-09-24T18:29:41.495Z,27.52
2022-09-24T18:32:10.643Z,27.54
2022-09-24T18:34:39.461Z,27.42
2022-09-24T18:37:08.674Z,27.47
2022-09-24T18:39:38.114Z,27.42
2022-09-24T18:42:07.458Z,27.40
2022-09-24T18:44:36.351Z,27.26
2022-09-24T18:47:05.466Z,27.18
2022-09-24T18:49:34.512Z,27.37
2022-09-24T18:52:06.787Z,27.41
2022-09-24T18:54:36.984Z,27.22
2022-09-24T18:57:06.154Z,27.31
2022-09-24T18:59:45.921Z,27.24
2022-09-24T19:02:16.573Z,27.42
2022-09-24T19:04:46.110Z,27.34
2022-09-24T19:07:15.599Z,27.33
2022-09-24T19:09:44.422Z,27.30
2022-09-24T19:12:13.863Z,27.41
2022-09-24T19:14:44.069Z,27.38
2022-09-24T19:17:13.099Z,27.45
2022-09-24T19:19:41.934Z,27.26
2022-09-24T19:22:11.201Z,27.40
2022-09-24T19:24:40.001Z,27.32
2022-09-24T19:27:09.186Z,27.36
2022-09-24T19:29:38.292Z,27.28
2022-09-24T19:32:08.927Z,27.32
2022-09-24T19:34:38.003Z,27.46
2022-09-24T19:37:07.200Z,27.40
2022-09-24T19:39:36.707Z,27.28
2022-09-24T19:42:05.979Z,27.37
2022-09-24T19:44:35.848Z,27.35
2022-09-24T19:47:04.962Z,27.24
2022-09-24T19:49:34.019Z,27.29
2022-09-24T19:52:05.290Z,27.44
2022-09-24T19:54:34.350Z,27.49
2022-09-24T19:57:03.729Z,27.33
2022-09-24T19:59:32.948Z,27.32
2022-09-24T20:02:01.911Z,27.23
2022-09-24T20:04:31.919Z,27.22
2022-09-24T20:07:05.625Z,27.15
2022-09-24T20:09:35.344Z,27.09
2022-09-24T20:12:05.648Z,27.07
2022-09-24T20:14:34.786Z,27.00
2022-09-24T20:17:03.854Z,27.14
2022-09-24T20:19:32.849Z,27.14
2022-09-24T20:22:01.937Z,27.11
2022-09-24T20:24:31.456Z,27.06
2022-09-24T20:27:18.824Z,27.07
2022-09-24T20:29:49.513Z,26.99
2022-09-24T20:32:19.033Z,26.89
2022-09-24T20:34:48.964Z,26.88
2022-09-24T20:37:18.291Z,26.93
2022-09-24T20:39:47.161Z,27.05
2022-09-24T20:42:16.847Z,27.02
2022-09-24T20:44:47.343Z,27.03
2022-09-24T20:47:17.270Z,26.89
2022-09-24T20:49:46.229Z,26.79
2022-09-24T20:52:15.765Z,26.89
2022-09-24T20:54:45.230Z,27.05
2022-09-24T20:57:14.859Z,26.82
2022-09-24T20:59:43.815Z,26.81
2022-09-24T21:02:13.240Z,26.95
2022-09-24T21:04:42.245Z,26.79
2022-09-24T21:07:11.379Z,26.85
2022-09-24T21:09:40.761Z,26.91
2022-09-24T21:12:10.003Z,26.87
2022-09-24T21:14:39.049Z,26.85
2022-09-24T21:17:11.138Z,26.79
2022-09-24T21:19:40.205Z,26.83
2022-09-24T21:22:09.124Z,26.80
2022-09-24T21:24:38.290Z,26.94
2022-09-24T21:27:08.630Z,26.83
2022-09-24T21:29:37.790Z,26.87
2022-09-24T21:32:06.839Z,26.79
2022-09-24T21:34:36.704Z,26.62
2022-09-24T21:37:05.712Z,26.75
2022-09-24T21:39:34.814Z,26.69
2022-09-24T21:42:03.973Z,26.66
2022-09-24T21:44:35.056Z,26.45
2022-09-24T21:47:05.386Z,26.66
2022-09-24T21:49:37.562Z,26.52
2022-09-24T21:52:07.873Z,26.60
2022-09-24T21:54:37.740Z,26.59
2022-09-24T21:57:07.157Z,26.34
2022-09-24T21:59:54.586Z,26.41
2022-09-24T22:02:23.645Z,26.42
2022-09-24T22:04:53.076Z,26.39
2022-09-24T22:07:22.458Z,26.61
2022-09-24T22:09:51.274Z,26.51
2022-09-24T22:12:20.288Z,26.55
2022-09-24T22:14:49.562Z,26.43
2022-09-24T22:17:18.906Z,26.48
2022-09-24T22:19:47.933Z,26.36
2022-09-24T22:22:17.173Z,26.44
2022-09-24T22:24:47.729Z,26.48
2022-09-24T22:27:17.078Z,26.44
2022-09-24T22:29:47.208Z,26.44
2022-09-24T22:32:16.263Z,26.43
2022-09-24T22:35:05.117Z,26.53
2022-09-24T22:37:35.036Z,26.46
2022-09-24T22:40:04.147Z,26.21
2022-09-24T22:42:33.151Z,26.31
2022-09-24T22:45:02.524Z,26.40
2022-09-24T22:47:31.769Z,26.40
2022-09-24T22:50:01.301Z,26.24
2022-09-24T22:52:31.057Z,26.20
2022-09-24T22:55:00.164Z,26.06
2022-09-24T22:57:29.088Z,26.25
2022-09-24T23:00:00.943Z,26.31
2022-09-24T23:02:30.266Z,26.32
2022-09-24T23:04:59.882Z,26.43
2022-09-24T23:07:29.169Z,26.44
2022-09-24T23:10:01.270Z,26.50
2022-09-24T23:12:34.875Z,26.45
2022-09-24T23:15:08.534Z,26.19
2022-09-24T23:17:41.672Z,26.10
2022-09-24T23:20:11.335Z,26.22
2022-09-24T23:22:40.745Z,26.30
2022-09-24T23:25:10.857Z,26.34
2022-09-24T23:27:40.215Z,26.30
2022-09-24T23:30:09.840Z,26.34
2022-09-24T23:32:38.948Z,26.36
2022-09-24T23:35:08.587Z,26.35
2022-09-24T23:37:37.415Z,26.25
2022-09-24T23:40:07.114Z,26.38
2022-09-24T23:42:35.943Z,26.34
2022-09-24T23:45:05.413Z,26.34
2022-09-24T23:47:36.318Z,26.32
2022-09-24T23:50:06.108Z,26.28
2022-09-24T23:52:35.312Z,26.21
2022-09-24T23:55:04.403Z,26.23
2022-09-24T23:57:33.619Z,26.22
